Time;durP1;ratioP1;P1;durP2;ratioP2;P2;SDS_P1;SDS_P2;PMS_P1;PMS_P2;Temp;Humidity;BMP_temperature;BMP_pressure;BME280_temperature;BME280_humidity;BME280_pressure;Samples;Min_cycle;Max_cycle;Signal;HPM_P1;HPM_P2
2022/09/28 00:01:38;;;;;;;6.15;2.10;;;19.30;82.70;;;;;;1924789;73;21075;-55
2022/09/28 00:04:08;;;;;;;5.30;2.30;;;19.30;82.70;;;;;;1924675;74;21151;-54
2022/09/28 00:06:38;;;;;;;5.58;2.62;;;19.30;82.80;;;;;;1924618;74;21057;-54
2022/09/28 00:09:07;;;;;;;2.58;2.22;;;19.30;83.00;;;;;;1924714;74;21071;-56
2022/09/28 00:11:37;;;;;;;4.87;2.45;;;19.30;83.30;;;;;;1924739;74;21075;-55
2022/09/28 00:14:07;;;;;;;3.50;2.42;;;19.20;83.50;;;;;;1924716;74;21022;-55
2022/09/28 00:16:41;;;;;;;3.95;2.45;;;19.10;83.50;;;;;;1924721;74;21020;-55
2022/09/28 00:19:11;;;;;;;4.30;2.35;;;19.00;83.50;;;;;;1924763;74;21021;-55
2022/09/28 00:21:41;;;;;;;4.47;2.50;;;19.00;84.10;;;;;;1917747;74;21054;-55
2022/09/28 00:24:14;;;;;;;11.88;2.77;;;19.00;83.50;;;;;;1914764;75;21565;-55
2022/09/28 00:26:59;;;;;;;27.87;3.95;;;19.10;83.50;;;;;;1914723;75;21053;-54
2022/09/28 00:29:28;;;;;;;6.12;2.30;;;19.10;83.40;;;;;;1912720;75;21018;-56
2022/09/28 00:32:01;;;;;;;6.00;2.45;;;19.10;83.40;;;;;;1914985;75;21022;-56
2022/09/28 00:34:33;;;;;;;5.90;2.30;;;19.10;83.40;;;;;;1914847;75;21018;-55
2022/09/28 00:37:04;;;;;;;7.28;2.15;;;19.10;83.30;;;;;;1914734;74;21081;-56
2022/09/28 00:39:34;;;;;;;9.40;2.45;;;19.10;83.20;;;;;;1914760;75;21068;-55
2022/09/28 00:42:05;;;;;;;9.08;3.37;;;19.10;83.00;;;;;;1914810;75;21041;-56
2022/09/28 00:44:55;;;;;;;12.25;4.95;;;19.10;82.80;;;;;;1914031;74;21014;-56
2022/09/28 00:47:51;;;;;;;14.85;6.08;;;19.10;82.80;;;;;;1914751;75;21018;-56
2022/09/28 00:50:32;;;;;;;7.72;3.35;;;19.10;82.60;;;;;;1914688;75;21046;-56
2022/09/28 00:53:07;;;;;;;5.00;2.80;;;19.10;82.50;;;;;;1914707;74;21085;-56
2022/09/28 00:55:48;;;;;;;4.08;2.33;;;19.10;82.40;;;;;;1915122;75;21461;-55
2022/09/28 00:58:23;;;;;;;6.45;2.15;;;19.00;82.20;;;;;;1914783;75;21034;-55
2022/09/28 01:00:53;;;;;;;;;;;19.00;82.00;;;;;;1916190;75;21045;-54
2022/09/28 01:03:22;;;;;;;3.10;2.40;;;19.00;81.90;;;;;;1914671;75;20143;-55
2022/09/28 01:05:53;;;;;;;6.08;2.47;;;19.00;81.90;;;;;;1914727;75;21100;-56
2022/09/28 01:08:23;;;;;;;6.42;2.37;;;19.00;81.80;;;;;;1914724;75;21085;-56
2022/09/28 01:10:53;;;;;;;5.45;2.20;;;19.00;81.70;;;;;;1914730;75;21021;-56
2022/09/28 01:13:24;;;;;;;4.53;2.58;;;19.10;81.80;;;;;;1914895;74;21022;-56
2022/09/28 01:16:16;;;;;;;3.80;2.20;;;19.00;81.70;;;;;;1914813;75;21026;-56
2022/09/28 01:19:09;;;;;;;4.45;2.25;;;19.00;81.50;;;;;;1900805;75;21029;-56
2022/09/28 01:21:45;;;;;;;8.10;2.42;;;19.00;81.40;;;;;;1914692;74;21058;-56
2022/09/28 01:24:20;;;;;;;;;;;19.00;81.30;;;;;;1916910;74;21026;-56
2022/09/28 01:27:04;;;;;;;4.20;2.12;;;19.00;81.00;;;;;;1914876;74;20100;-56
2022/09/28 01:29:45;;;;;;;5.57;2.37;;;19.00;81.10;;;;;;1860268;75;21026;-56
2022/09/28 01:32:29;;;;;;;5.83;2.30;;;19.00;81.10;;;;;;1914887;75;20986;-55
2022/09/28 01:35:03;;;;;;;3.45;2.17;;;19.00;81.00;;;;;;1914577;74;21108;-56
2022/09/28 01:37:35;;;;;;;4.03;2.37;;;19.00;81.00;;;;;;1914328;75;21468;-55
2022/09/28 01:40:06;;;;;;;5.65;2.05;;;19.00;81.00;;;;;;1914673;74;21050;-55
2022/09/28 01:42:38;;;;;;;9.00;2.72;;;19.00;80.90;;;;;;1914713;75;21022;-55
2022/09/28 01:45:16;;;;;;;4.42;1.75;;;19.00;80.70;;;;;;1914685;74;21010;-55
2022/09/28 01:47:47;;;;;;;3.47;1.92;;;19.00;80.60;;;;;;1914739;74;20990;-55
2022/09/28 01:50:19;;;;;;;3.95;2.10;;;19.00;80.60;;;;;;1914650;75;21025;-54
2022/09/28 01:52:53;;;;;;;5.85;2.33;;;19.00;80.60;;;;;;1914674;75;21075;-55
2022/09/28 01:55:32;;;;;;;;;;;19.00;80.50;;;;;;1917649;75;21131;-55
2022/09/28 01:58:14;;;;;;;4.80;2.25;;;19.00;79.80;;;;;;1914715;75;20160;-55
2022/09/28 02:00:46;;;;;;;3.77;2.00;;;19.00;80.10;;;;;;1912712;75;21123;-55
2022/09/28 02:03:26;;;;;;;2.30;1.80;;;19.00;80.10;;;;;;1914815;75;21058;-56
2022/09/28 02:06:03;;;;;;;3.05;2.02;;;19.00;80.00;;;;;;1913240;75;21123;-55
2022/09/28 02:08:35;;;;;;;2.35;1.80;;;19.00;79.70;;;;;;1914646;75;21089;-56
2022/09/28 02:11:07;;;;;;;2.85;2.00;;;19.00;79.60;;;;;;1914672;75;21476;-56
2022/09/28 02:13:39;;;;;;;2.80;1.70;;;19.10;79.60;;;;;;1914724;75;21472;-56
2022/09/28 02:16:26;;;;;;;4.50;2.33;;;19.10;79.50;;;;;;1914732;75;20986;-56
2022/09/28 02:18:56;;;;;;;2.47;2.02;;;19.00;79.30;;;;;;1914473;74;21179;-55
2022/09/28 02:21:37;;;;;;;5.72;2.20;;;19.10;79.40;;;;;;1914737;74;21077;-55
2022/09/28 02:24:12;;;;;;;3.08;2.05;;;19.10;79.40;;;;;;1914385;75;21050;-54
2022/09/28 02:26:42;;;;;;;;;;;19.00;79.40;;;;;;1915872;75;21022;-55
2022/09/28 02:29:11;;;;;;;3.72;2.20;;;19.00;79.60;;;;;;1914894;75;20128;-55
2022/09/28 02:31:41;;;;;;;6.83;2.22;;;19.10;79.70;;;;;;1914804;75;21053;-55
2022/09/28 02:34:10;;;;;;;6.92;4.22;;;19.00;79.90;;;;;;1914811;74;21075;-55
2022/09/28 02:36:40;;;;;;;5.25;2.45;;;19.00;80.10;;;;;;1914784;75;21080;-55
2022/09/28 02:39:15;;;;;;;4.85;3.12;;;19.00;80.00;;;;;;1914832;75;21009;-55
2022/09/28 02:42:09;;;;;;;3.75;2.58;;;19.00;80.10;;;;;;1914597;75;21046;-55
2022/09/28 02:44:56;;;;;;;4.60;2.67;;;19.00;80.10;;;;;;1885680;74;21079;-55
2022/09/28 02:47:47;;;;;;;3.27;2.62;;;18.90;80.30;;;;;;1914486;75;21092;-55
2022/09/28 02:50:54;;;;;;;5.33;2.47;;;18.90;80.40;;;;;;1914794;75;21002;-55
2022/09/28 02:53:37;;;;;;;4.35;2.65;;;18.90;80.30;;;;;;1827358;78;21057;-55
2022/09/28 02:56:29;;;;;;;13.65;3.65;;;18.80;80.30;;;;;;1826248;78;21052;-55
2022/09/28 02:59:04;;;;;;;7.03;2.87;;;18.80;80.40;;;;;;1882319;75;21075;-55
2022/09/28 03:01:56;;;;;;;13.58;3.58;;;18.80;80.70;;;;;;1914710;75;21076;-55
2022/09/28 03:04:43;;;;;;;4.70;2.77;;;18.80;80.90;;;;;;1914728;74;21017;-55
2022/09/28 03:07:19;;;;;;;8.95;3.08;;;18.80;80.90;;;;;;1827201;78;21083;-56
2022/09/28 03:09:51;;;;;;;16.32;2.98;;;18.80;81.10;;;;;;1891961;74;21782;-55
2022/09/28 03:12:23;;;;;;;5.87;2.77;;;18.80;81.20;;;;;;1914694;75;21054;-55
2022/09/28 03:15:10;;;;;;;11.83;3.60;;;18.80;81.20;;;;;;1914730;75;21131;-55
2022/09/28 03:17:39;;;;;;;5.28;2.62;;;18.80;81.10;;;;;;1900956;75;21108;-55
2022/09/28 03:20:10;;;;;;;5.08;3.00;;;18.70;81.00;;;;;;1914640;75;21022;-56
2022/09/28 03:22:40;;;;;;;5.92;2.65;;;18.70;81.00;;;;;;1919331;74;21053;-55
2022/09/28 03:25:10;;;;;;;6.42;2.70;;;18.70;81.00;;;;;;1924715;74;21457;-56
2022/09/28 03:27:40;;;;;;;6.92;2.20;;;18.70;81.10;;;;;;1924685;74;21017;-56
2022/09/28 03:30:11;;;;;;;8.18;3.47;;;18.70;81.10;;;;;;1891282;74;21088;-55
2022/09/28 03:32:42;;;;;;;8.93;3.02;;;18.70;81.10;;;;;;1924776;74;21135;-56
2022/09/28 03:35:11;;;;;;;4.70;2.25;;;18.70;81.20;;;;;;1924712;74;21022;-56
2022/09/28 03:37:41;;;;;;;8.00;3.20;;;18.70;81.20;;;;;;1924665;73;21154;-56
2022/09/28 03:40:10;;;;;;;8.33;2.35;;;18.80;81.30;;;;;;1924584;74;21026;-55
2022/09/28 03:42:42;;;;;;;6.75;2.90;;;18.80;81.30;;;;;;1924631;74;21155;-56
2022/09/28 03:45:12;;;;;;;3.98;2.70;;;18.80;81.30;;;;;;1924583;74;21108;-56
2022/09/28 03:47:46;;;;;;;4.03;2.77;;;18.80;81.40;;;;;;1924578;74;21014;-55
2022/09/28 03:50:15;;;;;;;2.97;2.10;;;18.70;81.30;;;;;;1925023;74;21091;-55
2022/09/28 03:52:45;;;;;;;4.35;2.50;;;18.80;81.50;;;;;;1924854;74;21083;-55
2022/09/28 03:55:14;;;;;;;5.50;2.83;;;18.80;81.50;;;;;;1924761;74;21025;-56
2022/09/28 03:57:44;;;;;;;7.78;2.98;;;18.70;81.70;;;;;;1924720;74;21037;-56
2022/09/28 04:00:15;;;;;;;8.55;3.15;;;18.80;81.90;;;;;;1924684;74;21026;-55
2022/09/28 04:02:43;;;;;;;9.13;3.60;;;18.70;82.00;;;;;;1924639;73;21134;-56
2022/09/28 04:05:13;;;;;;;5.70;2.95;;;18.70;82.20;;;;;;1924583;74;21049;-55
2022/09/28 04:07:42;;;;;;;6.78;3.30;;;18.70;82.30;;;;;;1924619;74;21138;-55
2022/09/28 04:10:12;;;;;;;23.22;3.80;;;18.70;82.30;;;;;;1924746;73;21132;-56
2022/09/28 04:12:41;;;;;;;13.15;3.70;;;18.70;82.40;;;;;;1924659;74;21007;-55
2022/09/28 04:15:11;;;;;;;11.25;3.47;;;18.70;82.60;;;;;;1924772;73;21095;-56
2022/09/28 04:17:40;;;;;;;14.63;4.55;;;18.60;82.60;;;;;;1924574;74;21064;-56
2022/09/28 04:20:11;;;;;;;8.23;4.25;;;18.60;82.70;;;;;;1922718;74;21066;-56
2022/09/28 04:22:45;;;;;;;14.67;5.83;;;18.50;82.80;;;;;;1919746;74;21520;-55
2022/09/28 04:25:14;;;;;;;4.97;3.37;;;18.50;83.60;;;;;;1924524;74;21103;-55
2022/09/28 04:30:31;;;;;;;5.75;3.87;;;18.40;83.50;;;;;;1924704;73;21021;-54
2022/09/28 04:33:00;;;;;;;6.28;3.58;;;18.40;83.60;;;;;;1924587;74;21001;-55
2022/09/28 04:35:31;;;;;;;6.00;3.90;;;18.40;84.00;;;;;;1924498;74;21496;-55
2022/09/28 04:38:01;;;;;;;4.25;3.37;;;18.30;83.70;;;;;;1924630;74;20990;-55
2022/09/28 04:40:30;;;;;;;9.20;4.95;;;18.30;84.10;;;;;;1924659;73;21071;-55
2022/09/28 04:43:00;;;;;;;7.58;4.62;;;18.30;84.40;;;;;;1924590;74;21021;-55
2022/09/28 04:45:29;;;;;;;9.55;4.83;;;18.30;84.50;;;;;;1924595;74;21073;-54
2022/09/28 04:48:00;;;;;;;7.75;3.37;;;18.30;84.50;;;;;;1923386;74;21044;-55
2022/09/28 04:50:31;;;;;;;9.33;4.15;;;18.30;84.60;;;;;;1922088;74;21089;-55
2022/09/28 04:53:12;;;;;;;8.25;3.77;;;18.30;84.70;;;;;;1891775;74;21091;-56
2022/09/28 04:55:42;;;;;;;12.78;3.87;;;18.30;84.80;;;;;;1924602;73;21087;-56
2022/09/28 04:58:11;;;;;;;20.80;5.30;;;18.30;84.90;;;;;;1924536;74;21029;-56
2022/09/28 05:00:41;;;;;;;10.70;4.78;;;18.40;85.00;;;;;;1924517;74;21019;-55
2022/09/28 05:03:12;;;;;;;17.10;6.92;;;18.40;85.10;;;;;;1911951;74;21017;-56
2022/09/28 05:05:46;;;;;;;15.88;5.40;;;18.40;85.00;;;;;;1899920;74;21065;-56
2022/09/28 05:08:19;;;;;;;12.67;5.77;;;18.50;85.20;;;;;;1922064;74;21081;-55
2022/09/28 05:10:49;;;;;;;9.80;5.03;;;18.50;85.20;;;;;;1924628;74;21025;-56
2022/09/28 05:13:20;;;;;;;14.78;5.55;;;18.50;85.10;;;;;;1922724;74;21045;-56
2022/09/28 05:15:52;;;;;;;10.90;5.50;;;18.50;85.10;;;;;;1924645;74;21025;-56
2022/09/28 05:18:22;;;;;;;19.10;6.53;;;18.50;85.20;;;;;;1924513;74;21057;-56
2022/09/28 05:20:53;;;;;;;13.40;5.10;;;18.50;85.20;;;;;;1922030;74;21561;-56
2022/09/28 05:23:23;;;;;;;36.10;6.17;;;18.50;85.20;;;;;;1924342;74;21100;-56
2022/09/28 05:25:54;;;;;;;11.97;4.95;;;18.60;85.20;;;;;;1923736;73;21069;-55
2022/09/28 05:28:29;;;;;;;13.60;5.15;;;18.60;85.10;;;;;;1924185;74;21066;-56
2022/09/28 05:31:01;;;;;;;9.38;4.87;;;18.60;85.00;;;;;;1919630;74;21065;-56
2022/09/28 05:33:41;;;;;;;13.48;5.22;;;18.60;85.00;;;;;;1910868;74;21006;-55
2022/09/28 05:36:14;;;;;;;7.00;4.40;;;18.60;85.00;;;;;;1924434;74;21114;-56
2022/09/28 05:38:44;;;;;;;12.63;5.62;;;18.60;85.10;;;;;;1924678;74;21114;-56
2022/09/28 05:41:15;;;;;;;14.68;6.58;;;18.70;85.40;;;;;;1924563;74;21123;-56
2022/09/28 05:43:44;;;;;;;15.43;6.50;;;18.70;85.40;;;;;;1924509;74;21057;-55
2022/09/28 05:46:13;;;;;;;16.27;6.83;;;18.70;85.30;;;;;;1924652;74;21083;-56
2022/09/28 05:48:43;;;;;;;17.77;8.28;;;18.70;85.40;;;;;;1924570;74;21037;-56
2022/09/28 05:51:12;;;;;;;15.10;8.10;;;18.70;85.30;;;;;;1924569;74;21075;-56
2022/09/28 05:53:42;;;;;;;19.70;8.20;;;18.70;85.30;;;;;;1924469;74;21038;-56
2022/09/28 05:56:11;;;;;;;14.05;9.13;;;18.70;85.30;;;;;;1924458;74;21091;-56
2022/09/28 05:58:42;;;;;;;22.25;8.10;;;18.70;85.30;;;;;;1924039;74;21058;-56
2022/09/28 06:01:12;;;;;;;16.48;8.85;;;18.70;85.30;;;;;;1924508;74;21029;-56
2022/09/28 06:03:43;;;;;;;17.75;8.35;;;18.70;85.30;;;;;;1924577;74;21021;-55
2022/09/28 06:06:12;;;;;;;20.60;8.50;;;18.70;85.20;;;;;;1924233;74;21033;-54
2022/09/28 06:08:45;;;;;;;15.83;8.10;;;18.80;85.20;;;;;;1924461;74;21033;-56
2022/09/28 06:11:32;;;;;;;19.17;8.45;;;18.80;85.00;;;;;;1923012;73;21069;-55
2022/09/28 06:14:04;;;;;;;14.40;6.78;;;18.90;85.00;;;;;;1923671;74;21049;-55
2022/09/28 06:16:33;;;;;;;24.95;9.15;;;18.90;84.90;;;;;;1924544;74;21053;-55
2022/09/28 06:19:03;;;;;;;19.20;11.20;;;19.00;84.80;;;;;;1924511;74;21049;-55
2022/09/28 06:21:37;;;;;;;25.43;10.13;;;19.00;84.50;;;;;;1922205;74;21078;-55
2022/09/28 06:24:08;;;;;;;28.83;10.85;;;19.00;84.30;;;;;;1921483;74;21111;-54
2022/09/28 06:26:38;;;;;;;16.37;8.85;;;19.00;84.20;;;;;;1914735;75;21045;-54
2022/09/28 06:29:08;;;;;;;13.95;6.12;;;19.00;84.10;;;;;;1914561;75;21034;-55
2022/09/28 06:31:39;;;;;;;8.50;5.22;;;19.00;83.90;;;;;;1914510;74;21018;-54
2022/09/28 06:34:11;;;;;;;9.45;4.50;;;19.00;84.00;;;;;;1914516;75;21018;-55
2022/09/28 06:36:39;;;;;;;16.97;5.20;;;19.00;83.80;;;;;;1914593;75;21026;-55
2022/09/28 06:39:09;;;;;;;8.43;4.80;;;19.00;83.80;;;;;;1914511;75;21080;-55
2022/09/28 06:41:38;;;;;;;15.18;6.62;;;19.00;83.80;;;;;;1914616;75;21087;-55
2022/09/28 06:44:15;;;;;;;17.20;6.72;;;19.00;83.90;;;;;;1914116;75;21061;-55
2022/09/28 06:47:02;;;;;;;11.43;5.00;;;19.00;83.90;;;;;;1914453;74;21054;-56
2022/09/28 06:49:42;;;;;;;8.70;4.85;;;19.00;84.20;;;;;;1910147;74;21098;-55
2022/09/28 06:52:13;;;;;;;8.25;3.70;;;19.00;84.20;;;;;;1914424;75;21044;-56
2022/09/28 06:54:44;;;;;;;7.83;3.95;;;19.00;84.40;;;;;;1900506;75;21100;-56
2022/09/28 06:57:15;;;;;;;11.05;4.12;;;18.90;84.50;;;;;;1911880;75;21117;-55
2022/09/28 06:59:44;;;;;;;17.75;9.00;;;18.90;84.70;;;;;;1914477;74;21013;-55
2022/09/28 07:02:14;;;;;;;21.60;11.95;;;18.90;84.50;;;;;;1914542;75;21082;-55
2022/09/28 07:05:00;;;;;;;7.70;5.53;;;18.90;84.40;;;;;;1872604;76;21049;-54
2022/09/28 07:07:34;;;;;;;8.63;5.37;;;18.90;84.20;;;;;;1857322;75;21037;-55
2022/09/28 07:10:05;;;;;;;10.78;7.50;;;18.90;84.20;;;;;;1912609;75;21073;-56
2022/09/28 07:12:53;;;;;;;13.15;8.43;;;18.90;84.10;;;;;;1914473;74;21117;-56
2022/09/28 07:15:24;;;;;;;10.30;4.97;;;18.80;84.00;;;;;;1913758;75;21021;-55
2022/09/28 07:18:01;;;;;;;11.00;5.80;;;18.80;84.30;;;;;;1914599;75;21089;-55
2022/09/28 07:20:32;;;;;;;10.72;7.05;;;18.80;84.70;;;;;;1914749;75;21022;-56
2022/09/28 07:23:04;;;;;;;13.15;8.15;;;18.80;84.70;;;;;;1914667;75;21103;-56
2022/09/28 07:25:36;;;;;;;15.15;9.05;;;18.80;84.80;;;;;;1920817;74;21125;-56
2022/09/28 07:28:09;;;;;;;20.15;10.88;;;18.70;84.70;;;;;;1927662;74;21077;-56
2022/09/28 07:30:49;;;;;;;21.30;14.05;;;18.70;85.00;;;;;;1912833;74;21176;-56
2022/09/28 07:33:36;;;;;;;23.67;13.25;;;18.60;85.10;;;;;;1863034;76;21109;-55
2022/09/28 07:36:19;;;;;;;14.95;9.93;;;18.60;85.20;;;;;;1911237;74;21071;-55
2022/09/28 07:38:47;;;;;;;15.90;9.05;;;18.60;85.30;;;;;;1928146;74;21025;-55
2022/09/28 07:41:21;;;;;;;10.23;7.28;;;18.60;85.40;;;;;;1928401;74;21021;-54
2022/09/28 07:43:48;;;;;;;10.95;5.97;;;18.60;85.60;;;;;;1927932;74;21048;-55
2022/09/28 07:46:18;;;;;;;11.83;6.45;;;18.60;85.90;;;;;;1928517;74;21018;-55
2022/09/28 07:48:50;;;;;;;13.10;8.03;;;18.60;85.90;;;;;;1925154;74;21056;-55
2022/09/28 07:51:21;;;;;;;15.75;7.90;;;18.70;86.10;;;;;;1927330;74;21024;-55
2022/09/28 07:53:55;;;;;;;14.50;7.10;;;18.70;86.00;;;;;;1900893;74;21116;-53
2022/09/28 07:56:29;;;;;;;11.35;6.85;;;18.70;86.10;;;;;;1865657;74;21013;-55
2022/09/28 07:59:03;;;;;;;16.20;6.40;;;18.70;86.20;;;;;;1901195;74;21049;-55
2022/09/28 08:01:50;;;;;;;15.05;6.22;;;18.70;86.10;;;;;;1822427;78;21047;-54
2022/09/28 08:04:19;;;;;;;17.75;9.75;;;18.70;86.00;;;;;;1894095;74;21021;-55
2022/09/28 08:06:49;;;;;;;35.68;20.88;;;18.80;85.90;;;;;;1928417;74;21005;-55
2022/09/28 08:09:19;;;;;;;55.65;30.27;;;18.80;85.90;;;;;;1928522;74;21033;-55
2022/09/28 08:12:07;;;;;;;42.08;19.10;;;18.90;85.50;;;;;;1928489;74;21510;-55
2022/09/28 08:14:48;;;;;;;37.40;18.73;;;19.00;85.20;;;;;;1926868;74;21127;-55
2022/09/28 08:17:37;;;;;;;29.92;14.05;;;19.10;84.70;;;;;;1926621;74;21058;-55
2022/09/28 08:22:55;;;;;;;18.07;7.15;;;19.40;83.40;;;;;;1928469;74;21076;-54
2022/09/28 08:25:25;;;;;;;12.98;6.35;;;19.50;82.70;;;;;;1928485;74;21069;-55
2022/09/28 08:27:55;;;;;;;13.35;6.15;;;19.50;81.90;;;;;;1928391;74;21025;-55
2022/09/28 08:30:26;;;;;;;14.83;6.25;;;19.70;81.20;;;;;;1928446;74;21134;-55
2022/09/28 08:33:03;;;;;;;11.28;4.65;;;19.70;80.90;;;;;;1925203;74;21065;-55
2022/09/28 08:35:41;;;;;;;11.45;5.20;;;19.80;80.60;;;;;;1928222;74;21062;-55
2022/09/28 08:38:25;;;;;;;10.70;5.65;;;19.80;80.30;;;;;;1856328;74;21009;-54
2022/09/28 08:41:16;;;;;;;7.10;3.87;;;19.90;80.10;;;;;;1874192;74;21037;-55
2022/09/28 08:44:25;;;;;;;9.40;4.90;;;20.00;79.20;;;;;;1913446;74;21036;-55
2022/09/28 08:48:42;;;;;;;23.30;11.38;;;20.10;77.80;;;;;;1927062;74;21152;-54
2022/09/28 08:49:44;;;;;;;;;;;20.10;77.80;;;;;;1926296;74;21025;-56
2022/09/28 08:52:29;;;;;;;7.15;3.92;;;20.20;76.10;;;;;;1927094;74;20125;-54
2022/09/28 08:55:20;;;;;;;6.47;3.20;;;20.20;77.30;;;;;;1927027;74;21105;-54
2022/09/28 08:57:52;;;;;;;9.33;3.10;;;20.20;76.60;;;;;;1927380;74;21006;-54
2022/09/28 09:00:25;;;;;;;9.63;3.20;;;20.20;76.60;;;;;;1928059;74;21146;-54
2022/09/28 09:02:55;;;;;;;10.32;4.30;;;20.30;76.70;;;;;;1926825;74;21037;-54
2022/09/28 09:05:28;;;;;;;11.73;4.60;;;20.30;76.80;;;;;;1926779;74;21100;-54
2022/09/28 09:08:15;;;;;;;9.28;4.78;;;20.30;76.80;;;;;;1927236;74;21063;-54
2022/09/28 09:10:53;;;;;;;12.00;5.65;;;20.40;77.00;;;;;;1920900;74;21145;-54
2022/09/28 09:13:36;;;;;;;14.98;8.95;;;20.40;77.20;;;;;;1922621;74;21188;-55
2022/09/28 09:16:27;;;;;;;15.13;8.33;;;20.50;77.40;;;;;;1905369;74;21571;-55
2022/09/28 09:19:28;;;;;;;25.50;11.03;;;20.50;77.30;;;;;;1892982;74;21020;-55
2022/09/28 09:22:17;;;;;;;8.25;4.75;;;20.70;77.40;;;;;;1897901;74;21079;-54
2022/09/28 09:24:58;;;;;;;6.83;4.28;;;20.70;77.00;;;;;;1920014;74;21063;-54
2022/09/28 09:27:42;;;;;;;10.65;4.12;;;20.70;77.00;;;;;;1922856;74;21063;-54
2022/09/28 09:30:15;;;;;;;10.65;4.97;;;20.80;77.10;;;;;;1923054;74;21047;-51
2022/09/28 09:33:06;;;;;;;17.15;7.40;;;20.80;77.30;;;;;;1924514;74;21070;-55
2022/09/28 09:35:59;;;;;;;22.73;11.25;;;20.90;77.50;;;;;;1919772;74;21458;-55
2022/09/28 09:38:45;;;;;;;12.82;7.67;;;20.90;77.70;;;;;;1886363;74;21107;-53
2022/09/28 09:41:45;;;;;;;19.73;10.10;;;21.00;78.00;;;;;;1892891;74;21121;-53
2022/09/28 09:44:59;;;;;;;14.70;8.08;;;21.10;78.20;;;;;;1911914;74;21141;-54
2022/09/28 09:47:58;;;;;;;12.53;6.53;;;21.10;78.30;;;;;;1890817;74;21137;-54
2022/09/28 09:50:39;;;;;;;12.37;5.87;;;21.20;78.40;;;;;;1890162;76;21105;-53
2022/09/28 09:53:11;;;;;;;20.23;4.87;;;21.30;78.40;;;;;;1890111;76;21151;-55
2022/09/28 09:55:46;;;;;;;16.37;3.52;;;21.50;78.10;;;;;;1898983;74;21064;-52
2022/09/28 09:58:28;;;;;;;9.60;3.15;;;21.60;77.80;;;;;;1923718;74;21532;-54
2022/09/28 10:01:13;;;;;;;3.90;2.22;;;21.80;76.90;;;;;;1906447;74;21112;-55
2022/09/28 10:03:50;;;;;;;9.50;3.03;;;22.00;75.40;;;;;;1912398;74;21133;-55
2022/09/28 10:06:22;;;;;;;5.35;1.90;;;22.20;73.50;;;;;;1924808;74;21269;-55
2022/09/28 10:08:54;;;;;;;3.65;2.08;;;22.40;72.40;;;;;;1924476;74;21081;-53
2022/09/28 10:11:30;;;;;;;6.15;2.17;;;22.60;70.60;;;;;;1924380;74;21027;-55
2022/09/28 10:14:00;;;;;;;4.33;2.58;;;22.70;68.90;;;;;;1924949;74;20991;-54
2022/09/28 10:16:38;;;;;;;8.95;1.85;;;22.90;69.10;;;;;;1922927;74;21063;-55
2022/09/28 10:19:12;;;;;;;3.67;1.62;;;23.00;67.80;;;;;;1923935;74;21018;-55
2022/09/28 10:22:01;;;;;;;3.42;1.87;;;23.10;68.00;;;;;;1924934;74;21066;-54
2022/09/28 10:24:40;;;;;;;3.45;1.72;;;23.10;67.30;;;;;;1924627;74;21170;-54
2022/09/28 10:27:15;;;;;;;5.70;2.25;;;23.20;66.00;;;;;;1924493;74;21508;-55
2022/09/28 10:29:53;;;;;;;6.40;2.17;;;23.20;64.10;;;;;;1924564;74;21031;-54
2022/09/28 10:32:25;;;;;;;11.90;2.25;;;23.20;64.10;;;;;;1924570;74;21515;-54
2022/09/28 10:34:58;;;;;;;7.60;2.77;;;23.30;64.00;;;;;;1924223;74;21130;-55
2022/09/28 10:37:29;;;;;;;4.28;2.10;;;23.30;63.80;;;;;;1920340;74;21179;-53
2022/09/28 10:40:00;;;;;;;2.40;1.70;;;23.30;63.20;;;;;;1923481;74;21074;-55
2022/09/28 10:42:33;;;;;;;4.20;1.80;;;23.30;62.90;;;;;;1924107;74;21054;-55
2022/09/28 10:45:06;;;;;;;5.45;2.10;;;23.30;63.10;;;;;;1924378;74;21088;-54
2022/09/28 10:47:42;;;;;;;12.15;2.70;;;23.30;63.10;;;;;;1924449;74;21099;-55
2022/09/28 10:50:26;;;;;;;4.30;2.40;;;23.30;63.40;;;;;;1924521;74;21051;-55
2022/09/28 10:53:11;;;;;;;8.88;3.30;;;23.30;63.20;;;;;;1923149;74;21129;-55
2022/09/28 10:55:42;;;;;;;3.22;2.15;;;23.30;63.30;;;;;;1920778;74;21074;-54
2022/09/28 10:58:41;;;;;;;7.62;2.60;;;23.30;63.40;;;;;;1924565;74;21023;-55
2022/09/28 11:01:20;;;;;;;3.47;2.20;;;23.30;63.30;;;;;;1899018;75;21117;-55
2022/09/28 11:03:53;;;;;;;8.80;2.40;;;23.30;62.20;;;;;;1899481;75;21556;-55
2022/09/28 11:06:28;;;;;;;4.17;2.30;;;23.40;61.80;;;;;;1912862;74;21481;-55
2022/09/28 11:08:58;;;;;;;;;;;23.40;60.00;;;;;;1927306;74;21034;-55
2022/09/28 11:11:28;;;;;;;4.75;2.12;;;23.40;56.60;;;;;;1924464;74;20140;-55
2022/09/28 11:14:05;;;;;;;6.33;2.50;;;23.40;59.40;;;;;;1924311;74;21386;-54
2022/09/28 11:16:36;;;;;;;5.87;2.10;;;23.40;58.60;;;;;;1924363;74;21050;-54
2022/09/28 11:19:08;;;;;;;6.62;2.67;;;23.50;58.60;;;;;;1924607;74;21022;-55
2022/09/28 11:21:45;;;;;;;5.42;2.50;;;23.50;58.10;;;;;;1914498;74;21046;-55
2022/09/28 11:24:16;;;;;;;4.45;2.35;;;23.60;57.80;;;;;;1924491;74;21026;-55
2022/09/28 11:26:58;;;;;;;5.55;2.55;;;23.60;57.00;;;;;;1918760;74;21122;-56
2022/09/28 11:29:38;;;;;;;3.65;2.05;;;23.70;56.60;;;;;;1905064;75;21117;-56
2022/09/28 11:32:12;;;;;;;3.70;2.05;;;23.70;56.80;;;;;;1895550;75;21121;-54
2022/09/28 11:34:48;;;;;;;4.92;2.17;;;23.70;56.20;;;;;;1903454;74;21559;-56
2022/09/28 11:37:36;;;;;;;12.78;2.92;;;23.70;55.80;;;;;;1905391;74;21031;-54
2022/09/28 11:40:36;;;;;;;6.20;2.20;;;23.70;55.40;;;;;;1904984;74;20992;-53
2022/09/28 11:43:15;;;;;;;3.35;2.10;;;23.70;55.60;;;;;;1889540;76;21142;-55
2022/09/28 11:46:05;;;;;;;4.53;2.33;;;23.60;55.90;;;;;;1902985;74;21047;-55
2022/09/28 11:48:44;;;;;;;9.65;2.40;;;23.60;55.90;;;;;;1903801;74;21032;-55
2022/09/28 11:51:19;;;;;;;6.00;3.12;;;23.60;56.30;;;;;;1905299;75;21039;-56
2022/09/28 11:54:03;;;;;;;4.97;2.30;;;23.60;56.60;;;;;;1905154;74;21042;-55
2022/09/28 11:56:34;;;;;;;7.15;2.55;;;23.60;56.70;;;;;;1905544;75;21034;-54
2022/09/28 11:59:26;;;;;;;7.75;2.52;;;23.60;56.80;;;;;;1905455;75;21395;-55
2022/09/28 12:02:02;;;;;;;4.12;2.02;;;23.50;56.70;;;;;;1892270;75;21349;-55
2022/09/28 12:04:35;;;;;;;5.67;2.90;;;23.60;56.80;;;;;;1902510;74;21478;-55
2022/09/28 12:07:11;;;;;;;5.55;2.60;;;23.60;56.40;;;;;;1904565;74;21043;-54
2022/09/28 12:10:12;;;;;;;6.60;2.00;;;23.60;56.10;;;;;;1905266;74;21024;-52
2022/09/28 12:12:46;;;;;;;6.70;2.40;;;23.60;55.90;;;;;;1903672;74;21015;-56
2022/09/28 12:15:24;;;;;;;3.85;2.17;;;23.70;56.10;;;;;;1903370;74;21528;-57
2022/09/28 12:18:02;;;;;;;4.83;2.58;;;23.70;55.70;;;;;;1904596;74;21466;-58
2022/09/28 12:20:34;;;;;;;5.40;2.22;;;23.80;54.50;;;;;;1904412;74;21070;-59
2022/09/28 12:23:08;;;;;;;3.55;2.35;;;23.80;54.30;;;;;;1904528;75;21498;-57
2022/09/28 12:25:41;;;;;;;5.95;2.50;;;23.90;53.90;;;;;;1901979;74;21063;-57
2022/09/28 12:28:13;;;;;;;5.10;2.30;;;23.90;53.20;;;;;;1917015;74;21500;-58
2022/09/28 12:30:45;;;;;;;7.08;2.45;;;23.90;52.90;;;;;;1922537;74;21105;-58
2022/09/28 12:33:14;;;;;;;3.58;2.35;;;23.80;53.20;;;;;;1923834;74;21032;-58
2022/09/28 12:36:18;;;;;;;5.12;2.58;;;23.80;52.80;;;;;;1923904;74;21082;-58
2022/09/28 12:39:06;;;;;;;3.95;2.30;;;23.80;52.40;;;;;;1924029;74;21083;-58
2022/09/28 12:41:46;;;;;;;4.75;2.20;;;23.80;52.70;;;;;;1923914;74;21044;-57
2022/09/28 12:44:33;;;;;;;5.80;2.58;;;23.80;52.70;;;;;;1878130;74;21071;-57
2022/09/28 12:47:11;;;;;;;4.95;2.27;;;23.90;53.10;;;;;;1923816;74;21145;-57
2022/09/28 12:49:57;;;;;;;3.17;1.98;;;23.90;53.30;;;;;;1922185;74;21553;-57
2022/09/28 12:52:35;;;;;;;10.13;2.95;;;24.00;53.40;;;;;;1924135;74;21132;-57
2022/09/28 12:55:24;;;;;;;4.00;2.20;;;24.00;53.20;;;;;;1924086;74;21051;-57
2022/09/28 12:58:19;;;;;;;7.10;3.22;;;24.00;53.00;;;;;;1924069;74;21111;-57
2022/09/28 13:01:10;;;;;;;2.72;1.95;;;24.00;53.10;;;;;;1924040;74;21153;-58
2022/09/28 13:03:45;;;;;;;6.35;2.20;;;24.10;53.40;;;;;;1912318;74;21043;-57
2022/09/28 13:06:35;;;;;;;5.53;2.62;;;24.10;53.40;;;;;;1918763;74;21089;-57
2022/09/28 13:09:23;;;;;;;3.87;2.30;;;24.10;53.40;;;;;;1924007;74;21098;-56
2022/09/28 13:11:55;;;;;;;3.45;2.02;;;24.10;53.70;;;;;;1922464;74;21138;-59
2022/09/28 13:14:39;;;;;;;4.85;2.35;;;24.00;53.90;;;;;;1923901;74;21023;-57
2022/09/28 13:17:41;;;;;;;3.50;2.08;;;24.00;54.20;;;;;;1921465;74;21079;-58
2022/09/28 13:20:40;;;;;;;4.10;1.90;;;23.90;54.60;;;;;;1923646;74;21036;-57
2022/09/28 13:23:21;;;;;;;4.25;2.10;;;23.80;54.80;;;;;;1924022;74;21090;-57
2022/09/28 13:26:10;;;;;;;6.12;2.05;;;23.80;55.30;;;;;;1924808;74;21019;-57
2022/09/28 13:28:41;;;;;;;45.63;24.67;;;23.80;55.60;;;;;;1910001;74;21134;-58
2022/09/28 13:31:11;;;;;;;5.08;2.35;;;23.80;56.00;;;;;;1902104;75;21032;-57
2022/09/28 13:33:42;;;;;;;5.58;3.60;;;23.80;56.50;;;;;;1902198;75;21007;-57
2022/09/28 13:36:29;;;;;;;4.62;2.87;;;23.80;57.20;;;;;;1902093;75;21087;-57